createdAt,value
2022-12-19T00:00:50.016Z,14.33
2022-12-19T00:02:52.995Z,12.73
2022-12-19T00:04:56.080Z,13.20
2022-12-19T00:07:00.817Z,12.57
2022-12-19T00:09:03.974Z,15.70
2022-12-19T00:11:07.057Z,12.90
2022-12-19T00:13:10.524Z,14.00
2022-12-19T00:15:13.436Z,13.70
2022-12-19T00:17:16.354Z,14.00
2022-12-19T00:19:19.467Z,13.10
2022-12-19T00:21:23.740Z,11.70
2022-12-19T00:23:29.243Z,13.37
2022-12-19T00:25:32.355Z,13.47
2022-12-19T00:27:37.114Z,12.60
2022-12-19T00:29:40.028Z,12.17
2022-12-19T00:31:43.023Z,13.67
2022-12-19T00:33:46.471Z,14.07
2022-12-19T00:35:49.630Z,14.60
2022-12-19T00:37:52.530Z,14.20
2022-12-19T00:39:56.809Z,11.27
2022-12-19T00:41:59.697Z,12.17
2022-12-19T00:44:04.837Z,14.20
2022-12-19T00:46:09.694Z,13.03
2022-12-19T00:48:12.805Z,13.40
2022-12-19T00:50:18.758Z,14.53
2022-12-19T00:52:21.918Z,13.00
2022-12-19T00:54:26.758Z,13.20
2022-12-19T00:56:33.432Z,13.80
2022-12-19T00:58:46.808Z,14.20
2022-12-19T01:00:50.422Z,13.67
2022-12-19T01:02:53.681Z,13.90
2022-12-19T01:04:56.781Z,13.30
2022-12-19T01:07:02.414Z,14.33
2022-12-19T01:09:08.689Z,15.27
2022-12-19T01:11:11.762Z,15.27
2022-12-19T01:13:16.221Z,13.37
2022-12-19T01:15:21.123Z,14.40
2022-12-19T01:17:24.259Z,13.27
2022-12-19T01:19:29.449Z,14.97
2022-12-19T01:21:32.384Z,12.97
2022-12-19T01:23:35.595Z,14.33
2022-12-19T01:25:40.449Z,12.57
2022-12-19T01:27:48.881Z,13.73
2022-12-19T01:29:53.301Z,13.60
2022-12-19T01:31:56.704Z,13.17
2022-12-19T01:34:06.550Z,14.03
2022-12-19T01:36:18.613Z,13.83
2022-12-19T01:38:26.313Z,13.20
2022-12-19T01:40:30.875Z,13.67
2022-12-19T01:42:41.245Z,12.67
2022-12-19T01:45:25.678Z,14.67
2022-12-19T01:47:36.526Z,12.77
2022-12-19T01:49:39.616Z,12.80
2022-12-19T01:51:46.090Z,12.17
2022-12-19T01:53:51.353Z,12.40
2022-12-19T01:55:55.460Z,13.10
2022-12-19T01:57:58.664Z,14.20
2022-12-19T02:00:04.693Z,14.13
2022-12-19T02:02:17.431Z,13.90
2022-12-19T02:04:22.445Z,14.07
2022-12-19T02:06:25.643Z,13.43
2022-12-19T02:08:28.966Z,13.37
2022-12-19T02:10:33.698Z,14.07
2022-12-19T02:12:38.509Z,14.07
2022-12-19T02:14:43.267Z,12.70
2022-12-19T02:16:51.737Z,12.40
2022-12-19T02:19:02.076Z,13.80
2022-12-19T02:21:19.958Z,13.03
2022-12-19T02:23:55.863Z,13.40
2022-12-19T02:26:14.053Z,11.47
2022-12-19T02:28:33.735Z,12.57
2022-12-19T02:30:54.506Z,12.90
2022-12-19T02:33:02.131Z,13.17
2022-12-19T02:35:11.603Z,13.03
2022-12-19T02:37:20.800Z,13.13
2022-12-19T02:39:28.323Z,12.87
2022-12-19T02:41:43.289Z,12.67
2022-12-19T02:43:58.993Z,12.10
2022-12-19T02:46:07.709Z,13.50
2022-12-19T02:48:17.617Z,12.60
2022-12-19T02:50:22.371Z,12.33
2022-12-19T02:52:48.033Z,12.33
2022-12-19T02:54:53.150Z,11.33
2022-12-19T02:57:01.878Z,13.10
2022-12-19T02:59:16.885Z,12.80
2022-12-19T03:01:31.751Z,12.17
2022-12-19T03:03:42.420Z,10.77
2022-12-19T03:05:53.569Z,11.07
2022-12-19T03:08:01.930Z,12.00
2022-12-19T03:10:14.328Z,11.13
2022-12-19T03:12:23.329Z,11.07
2022-12-19T03:14:27.757Z,10.83
2022-12-19T03:16:35.475Z,11.10
2022-12-19T03:18:38.826Z,10.97
2022-12-19T03:20:45.967Z,10.67
2022-12-19T03:22:49.239Z,11.30
2022-12-19T03:24:54.234Z,10.37
2022-12-19T03:27:03.995Z,11.83
2022-12-19T03:29:10.919Z,10.13
2022-12-19T03:31:16.012Z,10.70
2022-12-19T03:33:21.191Z,11.17
2022-12-19T03:35:26.800Z,10.77
2022-12-19T03:37:32.787Z,10.27
2022-12-19T03:39:35.873Z,9.50
2022-12-19T03:41:58.202Z,9.80
2022-12-19T03:47:40.284Z,10.60
2022-12-19T03:49:45.213Z,10.43
2022-12-19T03:51:59.119Z,10.70
2022-12-19T03:54:04.875Z,10.30
2022-12-19T03:56:14.066Z,11.50
2022-12-19T03:58:20.427Z,12.40
2022-12-19T04:00:24.949Z,11.80
2022-12-19T04:02:28.413Z,10.70
2022-12-19T04:04:32.971Z,12.40
2022-12-19T04:06:37.823Z,12.23
2022-12-19T04:08:41.118Z,11.70
2022-12-19T04:10:48.764Z,12.63
2022-12-19T04:12:55.061Z,11.20
2022-12-19T04:14:58.024Z,11.83
2022-12-19T04:17:07.875Z,11.37
2022-12-19T04:19:13.219Z,10.40
2022-12-19T04:21:20.753Z,11.90
2022-12-19T04:23:29.815Z,12.60
2022-12-19T04:25:35.617Z,10.63
2022-12-19T04:27:41.487Z,11.80
2022-12-19T04:29:44.947Z,12.73
2022-12-19T04:31:48.118Z,9.03
2022-12-19T04:33:51.003Z,12.43
2022-12-19T04:35:53.890Z,12.97
2022-12-19T04:37:58.348Z,12.63
2022-12-19T04:40:02.861Z,14.57
2022-12-19T04:42:05.881Z,13.13
2022-12-19T04:44:08.833Z,12.40
2022-12-19T04:46:11.857Z,13.40
2022-12-19T04:48:17.019Z,14.10
2022-12-19T04:50:19.976Z,12.73
2022-12-19T04:52:22.874Z,13.00
2022-12-19T04:54:25.731Z,13.30
2022-12-19T04:56:30.065Z,12.63
2022-12-19T04:58:33.178Z,13.50
2022-12-19T05:00:36.123Z,13.63
2022-12-19T05:02:39.323Z,14.47
2022-12-19T05:04:42.284Z,12.77
2022-12-19T05:06:45.152Z,14.10
2022-12-19T05:08:48.077Z,14.73
2022-12-19T05:10:51.317Z,13.03
2022-12-19T05:12:56.324Z,13.70
2022-12-19T05:14:59.240Z,14.00
2022-12-19T05:17:02.301Z,14.53
2022-12-19T05:19:05.212Z,15.20
2022-12-19T05:21:08.363Z,14.17
2022-12-19T05:23:16.301Z,13.90
2022-12-19T05:25:20.953Z,13.20
2022-12-19T05:27:24.073Z,15.23
2022-12-19T05:29:28.349Z,13.10
2022-12-19T05:31:31.472Z,13.47
2022-12-19T05:33:34.825Z,13.13
2022-12-19T05:35:38.508Z,13.53
2022-12-19T05:37:41.632Z,13.33
2022-12-19T05:39:44.554Z,13.50
2022-12-19T05:41:49.220Z,13.70
2022-12-19T05:43:54.111Z,14.77
2022-12-19T05:45:58.350Z,12.93
2022-12-19T05:48:01.553Z,12.77
2022-12-19T05:50:05.765Z,13.13
2022-12-19T05:52:09.181Z,13.23
2022-12-19T05:54:12.107Z,12.60
2022-12-19T05:56:16.612Z,11.57
2022-12-19T05:58:19.533Z,13.10
2022-12-19T06:00:22.820Z,12.00
2022-12-19T06:02:27.704Z,11.57
2022-12-19T06:04:31.291Z,12.80
2022-12-19T06:06:34.341Z,11.87
2022-12-19T06:08:37.584Z,11.20
2022-12-19T06:10:40.421Z,12.20
2022-12-19T06:12:43.569Z,11.90
2022-12-19T06:14:46.462Z,12.70
2022-12-19T06:16:49.820Z,11.60
2022-12-19T06:18:55.651Z,11.20
2022-12-19T06:20:59.768Z,10.87
2022-12-19T06:23:02.848Z,11.10
2022-12-19T06:25:06.752Z,11.00
2022-12-19T06:27:13.920Z,11.73
2022-12-19T06:29:20.426Z,11.20
2022-12-19T06:31:39.426Z,10.60
2022-12-19T06:33:56.787Z,10.43
2022-12-19T06:36:06.755Z,10.53
2022-12-19T06:38:16.604Z,9.80
2022-12-19T06:40:33.950Z,10.67
2022-12-19T06:42:37.202Z,10.10
2022-12-19T06:44:40.425Z,10.40
2022-12-19T06:46:46.678Z,9.80
2022-12-19T06:48:52.896Z,8.97
2022-12-19T06:51:02.437Z,9.47
2022-12-19T06:53:09.903Z,9.63
2022-12-19T06:55:28.014Z,9.00
2022-12-19T06:57:38.676Z,9.13
2022-12-19T06:59:44.194Z,9.07
2022-12-19T07:01:57.041Z,8.83
2022-12-19T07:04:03.030Z,9.53
2022-12-19T07:06:14.925Z,9.43
2022-12-19T07:08:19.407Z,9.07
2022-12-19T07:10:23.383Z,8.60
2022-12-19T07:12:29.191Z,8.97
2022-12-19T07:14:35.120Z,8.83
2022-12-19T07:16:40.123Z,9.07
2022-12-19T07:18:47.499Z,9.37
2022-12-19T07:20:51.309Z,8.10
2022-12-19T07:23:02.765Z,9.37
2022-12-19T07:25:19.169Z,10.07
2022-12-19T07:27:25.665Z,8.90
2022-12-19T07:29:35.103Z,9.00
2022-12-19T07:31:44.787Z,8.70
2022-12-19T07:33:50.751Z,8.23
2022-12-19T07:36:01.511Z,8.10
2022-12-19T07:38:06.182Z,7.93
2022-12-19T07:40:21.034Z,9.23
2022-12-19T07:42:27.038Z,9.53
2022-12-19T07:44:35.686Z,8.20
2022-12-19T07:46:45.160Z,8.40
2022-12-19T07:49:01.982Z,9.50
2022-12-19T07:51:12.463Z,8.67
2022-12-19T07:53:16.605Z,8.50
2022-12-19T07:55:39.133Z,9.27
2022-12-19T07:57:44.463Z,9.70
2022-12-19T07:59:54.501Z,9.43
2022-12-19T08:02:04.112Z,9.03
2022-12-19T08:04:10.941Z,10.30
2022-12-19T08:06:20.201Z,9.80
2022-12-19T08:08:24.786Z,10.67
2022-12-19T08:10:41.850Z,11.23
2022-12-19T08:12:46.758Z,9.57
2022-12-19T08:14:56.967Z,9.97
2022-12-19T08:19:27.808Z,10.40
2022-12-19T08:21:36.136Z,10.97
2022-12-19T08:23:42.749Z,11.43
2022-12-19T08:25:50.141Z,11.53
2022-12-19T08:27:54.339Z,10.30
2022-12-19T08:29:57.453Z,12.03
2022-12-19T08:32:02.395Z,10.77
2022-12-19T08:34:10.524Z,11.40
2022-12-19T08:36:19.833Z,10.93
2022-12-19T08:38:27.058Z,11.50
2022-12-19T08:40:31.803Z,10.90
2022-12-19T08:42:41.555Z,10.67
2022-12-19T08:44:46.000Z,12.50
2022-12-19T08:46:52.195Z,11.10
2022-12-19T08:48:59.207Z,12.30
2022-12-19T08:51:06.853Z,10.50
2022-12-19T08:53:11.493Z,10.80
2022-12-19T08:55:18.660Z,11.07
2022-12-19T08:57:24.652Z,11.10
2022-12-19T08:59:31.053Z,12.43
2022-12-19T09:01:37.082Z,11.57
2022-12-19T09:05:46.480Z,11.10
2022-12-19T09:06:19.056Z,10.00
2022-12-19T09:08:22.502Z,11.47
2022-12-19T09:10:31.751Z,11.50
2022-12-19T09:12:35.530Z,10.20
2022-12-19T09:14:44.163Z,10.87
2022-12-19T09:16:49.514Z,10.90
2022-12-19T09:18:56.964Z,10.30
2022-12-19T09:21:06.894Z,11.17
2022-12-19T09:23:12.424Z,11.13
2022-12-19T09:25:26.783Z,10.23
2022-12-19T09:27:30.073Z,10.40
2022-12-19T09:29:35.970Z,11.00
2022-12-19T09:31:43.495Z,9.40
2022-12-19T09:33:48.842Z,10.40
2022-12-19T09:35:57.716Z,10.00
2022-12-19T09:38:04.841Z,9.67
2022-12-19T09:40:13.627Z,9.60
2022-12-19T09:42:41.273Z,10.23
2022-12-19T09:44:57.220Z,9.07
2022-12-19T09:47:26.389Z,9.43
2022-12-19T09:49:39.956Z,9.40
2022-12-19T09:51:50.932Z,9.50
2022-12-19T09:54:06.436Z,9.20
2022-12-19T09:56:17.363Z,9.33
2022-12-19T09:58:32.559Z,9.10
2022-12-19T10:00:37.940Z,9.43
2022-12-19T10:02:50.548Z,10.83
2022-12-19T10:05:20.467Z,9.70
2022-12-19T10:08:01.336Z,8.73
2022-12-19T10:12:30.071Z,8.50
2022-12-19T10:12:57.011Z,9.37
2022-12-19T10:15:12.420Z,9.20
2022-12-19T10:17:31.584Z,8.70
2022-12-19T10:19:54.098Z,8.70
2022-12-19T10:22:20.224Z,9.60
2022-12-19T10:24:37.377Z,9.17
2022-12-19T10:26:47.770Z,8.07
2022-12-19T10:29:06.394Z,9.00
2022-12-19T10:31:22.209Z,8.77
2022-12-19T10:33:44.100Z,9.40
2022-12-19T10:36:02.081Z,8.33
2022-12-19T10:38:47.588Z,9.00
2022-12-19T10:41:13.639Z,9.77
2022-12-19T10:43:32.775Z,9.23
2022-12-19T10:45:48.676Z,8.20
2022-12-19T10:48:00.723Z,9.27
2022-12-19T10:50:09.549Z,8.57
2022-12-19T10:52:17.621Z,9.23
2022-12-19T10:54:33.006Z,9.37
2022-12-19T10:56:46.333Z,7.90
2022-12-19T10:59:05.678Z,9.50
2022-12-19T11:01:17.811Z,9.57
2022-12-19T11:03:25.661Z,9.00
2022-12-19T11:05:33.978Z,9.27
2022-12-19T11:07:39.059Z,9.07
2022-12-19T11:10:45.199Z,9.17
2022-12-19T11:15:34.100Z,8.77
2022-12-19T11:19:30.215Z,9.27
2022-12-19T11:20:46.985Z,8.87
2022-12-19T11:29:30.188Z,8.57
2022-12-19T11:29:35.182Z,8.17
2022-12-19T11:30:35.951Z,8.27
2022-12-19T11:30:46.944Z,8.33
2022-12-19T11:32:50.505Z,9.87
2022-12-19T11:35:01.744Z,8.97
2022-12-19T11:37:12.448Z,8.60
2022-12-19T11:39:21.477Z,9.07
2022-12-19T11:41:32.437Z,8.53
2022-12-19T11:43:44.458Z,8.47
2022-12-19T11:45:52.907Z,8.90
2022-12-19T11:48:01.082Z,8.80
2022-12-19T11:50:12.188Z,8.50
2022-12-19T11:53:02.486Z,8.67
2022-12-19T11:54:51.693Z,7.90
2022-12-19T11:56:58.161Z,7.27
2022-12-19T11:59:02.510Z,7.00
2022-12-19T12:01:13.851Z,6.63
2022-12-19T12:03:37.528Z,7.50
2022-12-19T12:05:44.905Z,6.90
2022-12-19T12:09:24.538Z,7.40
2022-12-19T12:19:24.529Z,6.83
2022-12-19T12:22:01.897Z,7.20
2022-12-19T12:25:59.481Z,7.43
2022-12-19T12:31:04.443Z,7.27
2022-12-19T12:31:09.792Z,6.87
2022-12-19T12:31:19.471Z,7.77
2022-12-19T12:31:32.197Z,7.57
2022-12-19T12:31:42.778Z,7.87
2022-12-19T12:35:50.035Z,6.37
2022-12-19T12:39:05.008Z,8.03
2022-12-19T12:41:42.626Z,7.60
2022-12-19T12:44:03.077Z,8.03
2022-12-19T12:46:07.144Z,7.30
2022-12-19T12:48:18.174Z,7.20
2022-12-19T12:50:23.398Z,7.30
2022-12-19T12:52:33.649Z,7.23
2022-12-19T12:54:39.388Z,8.40
2022-12-19T12:56:43.173Z,6.50
2022-12-19T12:59:06.089Z,7.17
2022-12-19T13:01:10.627Z,6.80
2022-12-19T13:03:15.112Z,7.47
2022-12-19T13:05:31.576Z,7.43
2022-12-19T13:07:43.070Z,7.93
2022-12-19T13:09:49.166Z,7.40
2022-12-19T13:12:13.748Z,7.30
2022-12-19T13:14:46.830Z,8.50
2022-12-19T13:16:53.086Z,6.87
2022-12-19T13:19:05.651Z,7.47
2022-12-19T13:21:10.825Z,7.00
2022-12-19T13:23:45.060Z,6.50
2022-12-19T13:25:56.658Z,7.30
2022-12-19T13:28:17.567Z,6.30
2022-12-19T13:30:51.901Z,6.67
2022-12-19T13:33:14.173Z,6.93
2022-12-19T13:39:43.393Z,6.73
2022-12-19T13:40:01.898Z,7.67
2022-12-19T13:40:32.476Z,7.30
2022-12-19T13:43:07.473Z,6.83
2022-12-19T13:45:16.586Z,6.67
2022-12-19T13:47:23.967Z,7.63
2022-12-19T13:49:33.329Z,6.37
2022-12-19T13:51:52.015Z,7.00
2022-12-19T13:54:00.439Z,6.97
2022-12-19T13:56:05.786Z,6.90
2022-12-19T13:58:29.250Z,6.37
2022-12-19T14:00:38.124Z,5.77
2022-12-19T14:02:58.135Z,6.47
2022-12-19T14:05:02.867Z,6.37
2022-12-19T14:07:34.804Z,5.60
2022-12-19T14:11:31.692Z,6.20
2022-12-19T14:13:59.226Z,6.00
2022-12-19T14:15:14.327Z,6.03
2022-12-19T14:17:25.971Z,6.27
2022-12-19T14:19:41.399Z,5.80
2022-12-19T14:22:05.793Z,6.70
2022-12-19T14:24:22.004Z,5.70
2022-12-19T14:28:26.982Z,6.33
2022-12-19T14:28:59.590Z,5.53
2022-12-19T14:31:09.895Z,5.43
2022-12-19T14:33:44.254Z,6.13
2022-12-19T14:36:06.249Z,5.30
2022-12-19T14:39:22.085Z,6.87
2022-12-19T14:41:07.134Z,6.83
2022-12-19T14:44:00.111Z,5.90
2022-12-19T14:53:33.929Z,5.80
2022-12-19T14:54:14.925Z,5.30
2022-12-19T14:54:32.369Z,5.53
2022-12-19T14:56:59.029Z,6.20
2022-12-19T14:59:05.022Z,5.77
2022-12-19T15:01:28.352Z,5.60
2022-12-19T15:03:37.226Z,5.40
2022-12-19T15:05:43.474Z,5.87
2022-12-19T15:07:53.523Z,6.57
2022-12-19T15:11:06.501Z,6.07
2022-12-19T15:14:48.130Z,5.40
2022-12-19T15:15:23.296Z,5.47
2022-12-19T15:17:28.437Z,5.70
2022-12-19T15:19:38.861Z,5.10
2022-12-19T15:21:47.011Z,5.13
2022-12-19T15:23:59.993Z,5.50
2022-12-19T15:26:08.328Z,5.53
2022-12-19T15:28:16.613Z,6.47
2022-12-19T15:30:22.390Z,6.27
2022-12-19T15:32:25.716Z,5.60
2022-12-19T15:34:40.532Z,5.83
2022-12-19T15:36:54.439Z,5.13
2022-12-19T15:39:01.494Z,5.10
2022-12-19T15:41:14.246Z,5.80
2022-12-19T15:44:01.853Z,5.70
2022-12-19T15:46:04.805Z,5.20
2022-12-19T15:48:17.145Z,6.17
2022-12-19T15:50:25.522Z,5.80
2022-12-19T15:52:35.595Z,5.30
2022-12-19T15:54:49.294Z,6.33
2022-12-19T15:56:57.775Z,5.30
2022-12-19T15:59:04.322Z,5.30
2022-12-19T16:01:10.065Z,5.57
2022-12-19T16:03:22.692Z,4.27
2022-12-19T16:05:30.211Z,5.20
2022-12-19T16:07:34.609Z,5.10
2022-12-19T16:09:39.374Z,4.90
2022-12-19T16:11:59.644Z,4.90
2022-12-19T16:14:06.078Z,4.83
2022-12-19T16:16:23.200Z,4.90
2022-12-19T16:18:38.045Z,4.40
2022-12-19T16:20:42.770Z,5.40
2022-12-19T16:22:50.065Z,5.20
2022-12-19T16:25:00.628Z,4.83
2022-12-19T16:27:08.909Z,4.27
2022-12-19T16:29:19.818Z,4.37
2022-12-19T16:31:26.319Z,5.00
2022-12-19T16:33:35.020Z,4.53
2022-12-19T16:36:03.669Z,3.87
2022-12-19T16:38:03.853Z,5.00
2022-12-19T16:40:32.643Z,4.90
2022-12-19T16:42:39.417Z,4.43
2022-12-19T16:44:46.651Z,3.57
2022-12-19T16:46:56.064Z,4.00
2022-12-19T16:49:04.918Z,3.90
2022-12-19T16:51:13.704Z,4.80
2022-12-19T16:53:19.924Z,4.17
2022-12-19T16:55:26.930Z,4.07
2022-12-19T16:57:30.978Z,4.10
2022-12-19T16:59:40.503Z,4.53
2022-12-19T17:01:45.551Z,4.03
2022-12-19T17:03:49.835Z,4.60
2022-12-19T17:05:54.774Z,4.00
2022-12-19T17:07:59.562Z,4.47
2022-12-19T17:10:05.375Z,4.20
2022-12-19T17:12:21.361Z,4.50
2022-12-19T17:14:30.517Z,3.90
2022-12-19T17:16:40.657Z,4.30
2022-12-19T17:18:53.695Z,3.37
2022-12-19T17:21:08.547Z,4.00
2022-12-19T17:23:18.030Z,3.67
2022-12-19T17:25:25.958Z,3.93
2022-12-19T17:27:38.457Z,3.63
2022-12-19T17:29:48.221Z,3.80
2022-12-19T17:31:56.087Z,4.13
2022-12-19T17:34:15.547Z,4.87
2022-12-19T17:36:24.895Z,3.70
2022-12-19T17:38:34.751Z,3.40
2022-12-19T17:40:41.745Z,3.23
2022-12-19T17:42:47.648Z,3.73
2022-12-19T17:44:52.566Z,3.30
2022-12-19T17:47:07.521Z,3.23
2022-12-19T17:49:17.849Z,4.07
2022-12-19T17:51:23.884Z,3.80
2022-12-19T17:53:28.531Z,3.30
2022-12-19T17:55:34.077Z,3.97
2022-12-19T17:57:43.519Z,3.57
2022-12-19T17:59:59.084Z,3.50
2022-12-19T18:02:13.170Z,3.30
2022-12-19T18:04:20.224Z,3.00
2022-12-19T18:06:37.295Z,3.60
2022-12-19T18:08:40.829Z,3.40
2022-12-19T18:10:44.175Z,3.23
2022-12-19T18:12:48.828Z,3.80
2022-12-19T18:14:54.371Z,3.63
2022-12-19T18:17:03.137Z,2.80
2022-12-19T18:19:18.097Z,3.77
2022-12-19T18:21:26.322Z,3.90
2022-12-19T18:23:32.032Z,3.40
2022-12-19T18:25:36.205Z,3.40
2022-12-19T18:27:42.342Z,2.83
2022-12-19T18:29:52.346Z,3.00
2022-12-19T18:31:56.914Z,3.37
2022-12-19T18:34:07.399Z,3.53
2022-12-19T18:36:18.023Z,3.30
2022-12-19T18:38:26.990Z,3.70
2022-12-19T18:40:31.894Z,3.07
2022-12-19T18:42:44.774Z,3.77
2022-12-19T18:44:47.826Z,3.50
2022-12-19T18:46:53.882Z,3.33
2022-12-19T18:49:01.263Z,3.53
2022-12-19T18:51:08.441Z,3.70
2022-12-19T18:53:21.684Z,3.77
2022-12-19T18:55:30.226Z,3.10
2022-12-19T18:57:35.115Z,3.60
2022-12-19T18:59:39.521Z,3.73
2022-12-19T19:01:47.159Z,3.00
2022-12-19T19:03:54.772Z,2.70
2022-12-19T19:06:02.398Z,3.10
2022-12-19T19:08:19.525Z,3.97
2022-12-19T19:10:45.056Z,3.27
2022-12-19T19:12:51.026Z,3.40
2022-12-19T19:14:55.190Z,3.30
2022-12-19T19:17:02.673Z,3.30
2022-12-19T19:19:07.197Z,2.83
2022-12-19T19:21:13.422Z,3.17
2022-12-19T19:23:17.945Z,3.30
2022-12-19T19:25:20.872Z,3.10
2022-12-19T19:27:23.842Z,3.50
2022-12-19T19:29:26.958Z,3.30
2022-12-19T19:31:31.758Z,3.73
2022-12-19T19:33:51.221Z,3.10
2022-12-19T19:36:04.651Z,3.40
2022-12-19T19:38:18.249Z,3.47
2022-12-19T19:40:31.572Z,3.80
2022-12-19T19:42:36.660Z,3.47
2022-12-19T19:44:50.822Z,3.10
2022-12-19T19:46:56.058Z,3.50
2022-12-19T19:49:02.957Z,3.17
2022-12-19T19:51:09.665Z,3.40
2022-12-19T19:53:28.633Z,2.70
2022-12-19T19:58:25.525Z,3.03
2022-12-19T20:00:28.530Z,3.77
2022-12-19T20:02:31.719Z,2.97
2022-12-19T20:04:35.442Z,2.87
2022-12-19T20:06:38.343Z,3.10
2022-12-19T20:08:41.494Z,2.97
2022-12-19T20:10:44.459Z,3.07
2022-12-19T20:12:48.831Z,3.00
2022-12-19T20:14:51.750Z,3.03
2022-12-19T20:16:54.873Z,2.60
2022-12-19T20:18:57.907Z,2.77
2022-12-19T20:21:01.149Z,2.87
2022-12-19T20:23:05.933Z,3.50
2022-12-19T20:25:09.383Z,2.90
2022-12-19T20:27:12.511Z,2.57
2022-12-19T20:29:17.117Z,3.00
2022-12-19T20:31:21.151Z,3.10
2022-12-19T20:33:24.132Z,3.10
2022-12-19T20:35:27.051Z,3.17
2022-12-19T20:37:30.034Z,2.57
2022-12-19T20:39:34.262Z,2.63
2022-12-19T20:41:37.289Z,2.60
2022-12-19T20:43:40.340Z,3.20
2022-12-19T20:45:45.261Z,2.47
2022-12-19T20:47:48.154Z,3.53
2022-12-19T20:49:51.236Z,2.80
2022-12-19T20:51:54.203Z,2.77
2022-12-19T20:53:57.574Z,2.70
2022-12-19T20:56:02.016Z,2.90
2022-12-19T20:58:04.937Z,3.30
2022-12-19T21:00:10.241Z,3.20
2022-12-19T21:02:14.972Z,3.13
2022-12-19T21:04:18.135Z,3.67
2022-12-19T21:06:22.138Z,3.47
2022-12-19T21:08:25.837Z,3.07
2022-12-19T21:10:28.699Z,3.57
2022-12-19T21:12:31.679Z,3.30
2022-12-19T21:14:34.661Z,3.03
2022-12-19T21:16:37.682Z,3.80
2022-12-19T21:18:43.096Z,3.17
2022-12-19T21:20:46.281Z,3.27
2022-12-19T21:22:49.429Z,3.30
2022-12-19T21:24:52.308Z,3.40
2022-12-19T21:26:58.388Z,3.30
2022-12-19T21:29:01.675Z,3.17
2022-12-19T21:31:06.843Z,3.37
2022-12-19T21:33:10.355Z,3.17
2022-12-19T21:35:14.667Z,3.13
2022-12-19T21:37:17.551Z,3.20
2022-12-19T21:39:25.236Z,4.10
2022-12-19T21:41:28.153Z,3.23
2022-12-19T21:43:32.108Z,2.97
2022-12-19T21:45:34.975Z,3.37
2022-12-19T21:47:39.423Z,2.90
2022-12-19T21:49:42.434Z,4.17
2022-12-19T21:51:46.679Z,3.27
2022-12-19T21:53:50.555Z,2.83
2022-12-19T21:55:53.430Z,3.10
2022-12-19T21:57:56.372Z,3.10
2022-12-19T21:59:59.218Z,3.37
2022-12-19T22:02:02.280Z,2.80
2022-12-19T22:04:07.048Z,3.50
2022-12-19T22:06:13.393Z,3.00
2022-12-19T22:08:17.668Z,3.10
2022-12-19T22:10:20.785Z,3.23
2022-12-19T22:12:23.703Z,3.30
2022-12-19T22:14:28.915Z,3.37
2022-12-19T22:16:32.376Z,3.40
2022-12-19T22:18:35.921Z,3.17
2022-12-19T22:20:42.127Z,3.50
2022-12-19T22:22:45.836Z,3.37
2022-12-19T22:24:50.088Z,2.80
2022-12-19T22:26:54.244Z,3.43
2022-12-19T22:28:57.936Z,2.90
2022-12-19T22:31:01.114Z,3.00
2022-12-19T22:33:04.765Z,2.77
2022-12-19T22:35:08.565Z,2.73
2022-12-19T22:37:11.610Z,3.00
2022-12-19T22:39:15.812Z,3.53
2022-12-19T22:41:20.291Z,2.70
2022-12-19T22:43:23.849Z,2.70
2022-12-19T22:45:26.756Z,2.70
2022-12-19T22:47:29.666Z,2.37
2022-12-19T22:49:32.530Z,2.70
2022-12-19T22:51:36.515Z,2.53
2022-12-19T22:53:40.385Z,2.80
2022-12-19T22:55:43.861Z,2.70
2022-12-19T22:57:48.141Z,2.53
2022-12-19T22:59:50.967Z,2.43
2022-12-19T23:01:54.322Z,2.60
2022-12-19T23:03:58.623Z,2.77
2022-12-19T23:06:02.657Z,2.53
2022-12-19T23:08:06.112Z,2.50
2022-12-19T23:10:10.250Z,2.23
2022-12-19T23:12:13.172Z,2.70
2022-12-19T23:14:18.895Z,2.53
2022-12-19T23:16:21.900Z,2.10
2022-12-19T23:18:24.786Z,2.00
2022-12-19T23:20:27.750Z,2.80
2022-12-19T23:22:30.746Z,2.37
2022-12-19T23:24:33.609Z,2.30
2022-12-19T23:26:38.542Z,2.60
2022-12-19T23:28:41.447Z,2.20
2022-12-19T23:30:45.843Z,2.30
2022-12-19T23:32:50.976Z,2.27
2022-12-19T23:34:54.086Z,1.93
2022-12-19T23:37:12.939Z,1.90
2022-12-19T23:39:16.192Z,2.23
2022-12-19T23:41:19.060Z,2.43
2022-12-19T23:43:21.935Z,1.80
2022-12-19T23:45:24.947Z,2.00
2022-12-19T23:47:29.842Z,2.13
2022-12-19T23:49:33.363Z,2.13
2022-12-19T23:51:36.340Z,2.00
2022-12-19T23:53:39.289Z,1.90
2022-12-19T23:55:42.267Z,1.77
2022-12-19T23:57:45.208Z,2.33
2022-12-19T23:59:48.157Z,1.57
